Time;durP1;ratioP1;P1;durP2;ratioP2;P2;SDS_P1;SDS_P2;PMS_P1;PMS_P2;Temp;Humidity;BMP_temperature;BMP_pressure;BME280_temperature;BME280_humidity;BME280_pressure;Samples;Min_cycle;Max_cycle;Signal;HPM_P1;HPM_P2
2022/01/23 00:01:13;;;;;;;6.05;3.03;;;;;;;20.74;36.96;103467.19;5027012;28;20132;-69
2022/01/23 00:03:45;;;;;;;6.57;3.20;;;;;;;20.78;36.96;103473.06;5027880;28;20041;-69
2022/01/23 00:06:11;;;;;;;2.75;2.38;;;;;;;20.77;37.00;103474.88;5025597;28;20107;-68
2022/01/23 00:08:36;;;;;;;7.18;2.90;;;;;;;20.77;37.17;103472.22;5027988;28;20067;-68
2022/01/23 00:11:02;;;;;;;6.45;2.80;;;;;;;20.77;36.93;103472.22;5028716;28;20645;-68
2022/01/23 00:17:15;;;;;;;6.45;2.70;;;;;;;20.70;36.83;103452.50;5025954;28;20052;-69
2022/01/23 00:19:03;;;;;;;6.18;3.03;;;;;;;20.64;36.93;103452.97;5028802;28;20126;-69
2022/01/23 00:21:28;;;;;;;4.65;2.65;;;;;;;20.70;36.98;103459.63;5034736;28;20037;-69
2022/01/23 00:31:50;;;;;;;6.30;2.50;;;;;;;20.62;37.00;103457.56;5044302;28;20049;-69
2022/01/23 00:34:16;;;;;;;3.65;2.30;;;;;;;20.57;36.99;103464.19;5035582;28;20667;-69
2022/01/23 00:36:41;;;;;;;4.05;2.50;;;;;;;20.57;37.02;103466.84;5045123;28;20037;-69
2022/01/23 00:39:07;;;;;;;4.35;2.53;;;;;;;20.51;37.23;103455.78;5032600;28;20040;-69
2022/01/23 00:41:33;;;;;;;4.63;2.90;;;;;;;20.58;36.90;103460.56;5035560;28;20062;-69
2022/01/23 00:44:00;;;;;;;5.45;3.10;;;;;;;20.55;37.01;103458.19;5033260;28;20072;-69
2022/01/23 00:46:33;;;;;;;4.07;2.53;;;;;;;20.52;37.06;103457.47;5031484;28;20048;-69
2022/01/23 00:51:33;;;;;;;5.38;2.65;;;;;;;20.45;37.15;103461.53;5048428;28;20438;-69
2022/01/23 00:54:00;;;;;;;4.30;2.85;;;;;;;20.48;37.02;103463.13;5031702;28;20048;-69
2022/01/23 00:56:26;;;;;;;5.15;2.50;;;;;;;20.45;37.12;103456.22;5029356;28;20037;-69
2022/01/23 00:58:52;;;;;;;4.78;2.85;;;;;;;20.44;37.05;103456.34;5035173;28;20041;-69
2022/01/23 01:01:18;;;;;;;4.28;2.60;;;;;;;20.43;37.04;103459.97;5034618;28;20062;-69
2022/01/23 01:03:43;;;;;;;5.40;2.75;;;;;;;20.45;37.11;103473.91;5036548;28;20517;-69
2022/01/23 01:06:10;;;;;;;3.13;2.63;;;;;;;20.43;36.96;103478.50;5030001;28;20329;-69
2022/01/23 01:08:38;;;;;;;4.53;2.70;;;;;;;20.39;37.15;103485.81;5033923;28;20045;-69
2022/01/23 01:13:53;;;;;;;4.22;2.40;;;;;;;20.37;37.17;103479.78;5034186;28;20349;-69
2022/01/23 01:33:04;;;;;;;5.88;3.00;;;;;;;20.29;37.17;103468.09;5044982;28;20044;-68
2022/01/23 01:35:39;;;;;;;4.18;2.28;;;;;;;20.27;37.22;103464.75;5028725;28;20041;-68
2022/01/23 01:38:06;;;;;;;3.80;2.95;;;;;;;20.21;37.33;103468.72;5033143;28;20146;-69
2022/01/23 01:40:32;;;;;;;4.60;2.42;;;;;;;20.21;37.18;103468.72;5032762;28;20278;-69
2022/01/23 01:42:58;;;;;;;4.68;2.40;;;;;;;20.22;37.22;103471.22;5030249;28;20035;-69
2022/01/23 01:45:28;;;;;;;3.75;2.70;;;;;;;20.19;37.30;103478.56;5042261;28;20033;-68
2022/01/23 01:48:15;;;;;;;5.13;2.60;;;;;;;20.21;37.34;103482.78;5033079;28;22014;-69
2022/01/23 01:50:46;;;;;;;4.03;2.42;;;;;;;20.19;37.23;103474.13;5032781;28;20030;-69
2022/01/23 01:53:13;;;;;;;5.13;2.58;;;;;;;20.15;37.24;103475.31;5035696;28;20036;-69
2022/01/23 01:55:44;;;;;;;3.25;2.20;;;;;;;20.17;37.28;103477.84;5029559;28;20149;-69
2022/01/23 01:58:33;;;;;;;4.82;2.55;;;;;;;20.19;37.18;103482.06;5032137;28;20037;-68
2022/01/23 02:09:42;;;;;;;5.30;2.55;;;;;;;20.07;37.40;103480.34;5045357;28;20045;-68
2022/01/23 02:23:28;;;;;;;4.00;2.50;;;;;;;20.07;37.28;103476.84;5025754;28;20411;-68
2022/01/23 02:50:48;;;;;;;3.95;2.40;;;;;;;19.94;37.38;103492.00;5044003;28;20363;-68
2022/01/23 02:55:48;;;;;;;3.28;2.40;;;;;;;19.91;37.43;103499.19;5029221;28;20437;-69
2022/01/23 02:58:21;;;;;;;4.65;2.65;;;;;;;19.91;37.43;103496.53;5035369;28;20041;-70
2022/01/23 03:01:08;;;;;;;5.68;2.60;;;;;;;19.92;37.45;103502.66;5031203;28;20036;-69
2022/01/23 03:03:44;;;;;;;2.50;2.30;;;;;;;19.90;37.43;103504.59;5027243;28;20140;-69
2022/01/23 03:25:35;;;;;;;2.67;2.40;;;;;;;19.80;37.82;103503.59;5024309;28;20037;-69
2022/01/23 03:30:37;;;;;;;3.50;2.20;;;;;;;19.82;37.35;103504.34;5030694;28;20045;-69
2022/01/23 03:33:03;;;;;;;4.30;2.55;;;;;;;19.79;37.48;103496.63;5031416;28;20037;-69
2022/01/23 03:35:30;;;;;;;4.95;2.53;;;;;;;19.74;37.44;103494.31;5042939;28;20068;-69
2022/01/23 03:37:56;;;;;;;3.67;2.40;;;;;;;19.76;37.52;103502.16;5029675;28;20079;-69
2022/01/23 03:40:22;;;;;;;4.00;2.65;;;;;;;19.75;37.54;103503.97;5028185;28;20049;-69
2022/01/23 03:42:55;;;;;;;5.15;2.50;;;;;;;19.75;37.54;103511.88;5024602;28;20491;-69
2022/01/23 03:49:31;;;;;;;3.47;2.35;;;;;;;19.71;37.46;103506.91;5041131;28;20530;-69
2022/01/23 03:50:48;;;;;;;4.35;2.58;;;;;;;19.71;37.57;103502.47;5044896;28;20661;-69
2022/01/23 03:53:37;;;;;;;2.63;2.25;;;;;;;19.73;37.59;103502.34;5025767;28;20041;-68
2022/01/23 03:56:03;;;;;;;3.97;2.42;;;;;;;19.72;37.43;103503.31;5050237;28;20041;-68
2022/01/23 03:58:30;;;;;;;4.93;2.50;;;;;;;19.71;37.51;103496.34;5043312;28;20617;-69
2022/01/23 04:00:56;;;;;;;4.25;2.40;;;;;;;19.69;37.65;103499.09;5032153;28;20029;-69
2022/01/23 04:03:21;;;;;;;2.88;2.17;;;;;;;19.68;37.45;103499.22;5026710;28;20041;-69
2022/01/23 04:05:47;;;;;;;4.20;2.45;;;;;;;19.66;37.57;103503.78;5034254;28;20057;-68
2022/01/23 04:08:15;;;;;;;3.10;2.30;;;;;;;19.67;37.61;103497.53;5044787;28;20041;-68
2022/01/23 04:10:41;;;;;;;4.10;2.40;;;;;;;19.64;37.59;103495.97;5048541;28;20800;-68
2022/01/23 04:13:18;;;;;;;4.53;2.30;;;;;;;19.62;37.46;103503.19;5027902;28;20033;-68
2022/01/23 04:15:53;;;;;;;2.88;2.00;;;;;;;19.65;37.58;103497.66;5029480;28;20105;-68
2022/01/23 04:31:52;;;;;;;2.95;2.22;;;;;;;19.57;37.68;103510.63;5045348;28;20041;-68
2022/01/23 04:45:29;;;;;;;2.35;1.92;;;;;;;19.53;37.71;103504.66;5050762;28;20045;-68
2022/01/23 05:04:33;;;;;;;3.00;2.10;;;;;;;19.50;37.80;103515.44;5035803;28;20049;-68
2022/01/23 05:07:18;;;;;;;2.22;1.88;;;;;;;19.47;37.58;103510.41;5031829;28;20522;-68
2022/01/23 05:10:02;;;;;;;3.72;2.22;;;;;;;19.47;37.74;103510.41;5033974;28;20075;-68
2022/01/23 05:12:49;;;;;;;4.80;2.15;;;;;;;19.48;37.62;103519.16;5045050;28;20047;-68
2022/01/23 05:15:15;;;;;;;3.20;2.22;;;;;;;19.46;37.71;103513.16;5032178;28;20491;-68
2022/01/23 05:17:41;;;;;;;3.05;1.90;;;;;;;19.45;37.63;103514.13;5029987;28;20037;-68
2022/01/23 05:20:07;;;;;;;3.35;2.03;;;;;;;19.43;37.72;103516.88;5031722;28;20098;-68
2022/01/23 05:22:41;;;;;;;3.10;2.00;;;;;;;19.40;37.78;103517.09;5037030;28;20067;-68
2022/01/23 05:25:19;;;;;;;3.53;2.05;;;;;;;19.44;37.66;103517.72;5031670;28;20063;-68
2022/01/23 05:27:46;;;;;;;2.88;2.17;;;;;;;19.41;37.83;103518.78;5038201;28;20037;-68
2022/01/23 05:30:12;;;;;;;3.10;2.20;;;;;;;19.41;37.85;103529.34;5029207;28;20041;-68
2022/01/23 05:32:41;;;;;;;3.47;2.10;;;;;;;19.44;37.73;103529.13;5046551;28;20036;-68
2022/01/23 05:35:10;;;;;;;3.97;2.22;;;;;;;19.44;37.75;103530.94;5044843;28;20498;-68
2022/01/23 05:37:37;;;;;;;3.95;2.17;;;;;;;19.41;37.92;103526.72;5043296;28;20029;-68
2022/01/23 05:40:06;;;;;;;2.85;1.90;;;;;;;19.41;37.93;103525.88;5034899;28;20036;-68
2022/01/23 05:42:35;;;;;;;3.67;2.00;;;;;;;19.41;37.96;103531.16;5033855;28;20135;-68
2022/01/23 05:45:01;;;;;;;1.77;1.65;;;;;;;19.42;37.94;103523.13;5029875;28;20052;-68
2022/01/23 05:47:27;;;;;;;4.75;2.17;;;;;;;19.40;38.00;103521.53;5036367;28;20041;-68
2022/01/23 05:49:59;;;;;;;3.53;2.20;;;;;;;19.44;37.95;103523.00;5029569;28;20047;-68
2022/01/23 05:52:36;;;;;;;2.80;2.13;;;;;;;19.46;37.94;103527.22;5031999;28;20387;-68
2022/01/23 05:55:25;;;;;;;2.40;1.98;;;;;;;19.78;37.33;103522.22;5032772;28;20159;-68
2022/01/23 05:58:03;;;;;;;3.83;1.92;;;;;;;20.62;36.02;103510.50;5029744;28;20039;-68
2022/01/23 06:00:35;;;;;;;1.83;1.67;;;;;;;21.31;35.12;103516.47;5044791;28;20494;-68
2022/01/23 06:03:06;;;;;;;2.33;1.75;;;;;;;21.69;34.47;103520.44;5029354;28;20133;-68
2022/01/23 06:05:39;;;;;;;2.15;1.67;;;;;;;21.93;34.16;103523.72;5046104;28;20040;-68
2022/01/23 06:08:11;;;;;;;1.80;1.70;;;;;;;21.91;33.89;103522.16;5032707;28;20124;-68
2022/01/23 06:10:53;;;;;;;4.53;2.22;;;;;;;21.77;34.32;103525.97;5032833;28;20045;-69
2022/01/23 06:13:20;;;;;;;3.05;2.40;;;;;;;21.52;34.73;103518.31;5031891;28;20037;-68
2022/01/23 06:15:46;;;;;;;2.80;1.50;;;;;;;21.42;34.95;103526.22;5040994;28;20033;-68
2022/01/23 06:18:13;;;;;;;3.65;1.77;;;;;;;21.26;35.26;103523.97;5033891;28;20037;-68
2022/01/23 06:20:58;;;;;;;2.15;1.52;;;;;;;21.08;35.73;103520.13;5030508;28;20071;-68
2022/01/23 06:24:00;;;;;;;3.75;2.15;;;;;;;20.93;35.87;103530.13;5029235;28;20169;-68
2022/01/23 06:26:47;;;;;;;1.75;1.63;;;;;;;20.76;36.40;103523.50;5043765;28;20057;-69
2022/01/23 06:29:15;;;;;;;2.75;1.90;;;;;;;21.04;36.02;103530.13;5032254;28;20041;-69
2022/01/23 06:31:41;;;;;;;2.58;1.80;;;;;;;21.75;35.25;103535.84;5028897;28;20102;-68
2022/01/23 06:34:08;;;;;;;3.70;1.92;;;;;;;22.22;33.98;103537.19;5050271;28;20138;-68
2022/01/23 06:36:36;;;;;;;3.35;1.90;;;;;;;22.54;33.64;103538.91;5042245;28;20960;-68
2022/01/23 06:39:04;;;;;;;1.88;1.58;;;;;;;22.59;33.32;103540.19;5033275;28;20032;-68
2022/01/23 06:41:30;;;;;;;3.35;1.60;;;;;;;22.47;34.13;103535.94;5029725;28;20384;-68
2022/01/23 06:44:17;;;;;;;1.73;1.40;;;;;;;22.24;34.15;103537.06;5009584;28;20041;-68
2022/01/23 06:46:43;;;;;;;2.10;1.40;;;;;;;22.03;34.41;103539.69;5029702;28;20420;-68
2022/01/23 06:49:09;;;;;;;2.58;1.48;;;;;;;21.83;34.98;103540.50;5032570;28;20028;-68
2022/01/23 06:51:37;;;;;;;1.77;1.45;;;;;;;21.68;35.10;103540.81;5035995;28;20040;-68
2022/01/23 06:54:06;;;;;;;2.55;1.50;;;;;;;21.49;35.38;103545.94;5032628;28;20068;-68
2022/01/23 06:56:33;;;;;;;1.77;1.50;;;;;;;21.39;35.58;103556.47;5031795;28;20037;-68
2022/01/23 06:58:58;;;;;;;1.80;1.40;;;;;;;21.26;35.99;103549.63;5025055;28;20388;-69
2022/01/23 07:01:24;;;;;;;3.42;1.90;;;;;;;21.17;35.92;103551.16;5030355;28;20158;-68
2022/01/23 07:04:18;;;;;;;2.30;1.90;;;;;;;21.04;36.39;103546.00;5028497;28;20052;-69
2022/01/23 07:07:07;;;;;;;5.60;1.90;;;;;;;20.98;36.42;103548.28;5032561;28;20065;-69
2022/01/23 07:09:51;;;;;;;2.30;1.50;;;;;;;20.90;36.65;103550.72;5025879;28;20107;-68
2022/01/23 07:12:33;;;;;;;2.55;1.80;;;;;;;20.88;36.54;103565.88;5034277;28;20042;-69
2022/01/23 07:15:10;;;;;;;2.38;1.85;;;;;;;20.82;36.74;103564.53;5030640;28;20174;-68
2022/01/23 07:17:54;;;;;;;1.77;1.50;;;;;;;20.77;36.92;103562.25;5033300;28;20051;-69
2022/01/23 07:20:29;;;;;;;2.85;1.70;;;;;;;20.75;36.97;103566.84;5028192;28;20617;-68
2022/01/23 07:23:01;;;;;;;1.75;1.48;;;;;;;20.75;36.88;103563.34;5028263;28;20091;-68
2022/01/23 07:25:27;;;;;;;1.08;0.98;;;;;;;20.70;36.96;103578.75;5040109;28;20260;-68
2022/01/23 07:27:56;;;;;;;4.18;1.60;;;;;;;20.64;37.07;103576.56;5029513;28;20415;-68
2022/01/23 07:33:21;;;;;;;2.58;1.50;;;;;;;20.64;36.98;103595.09;5009670;28;20068;-69
2022/01/23 07:35:47;;;;;;;1.65;1.30;;;;;;;20.73;36.80;103594.41;5048969;28;20102;-69
2022/01/23 07:38:16;;;;;;;3.03;1.50;;;;;;;21.14;36.27;103588.50;5029725;28;20130;-69
2022/01/23 07:41:00;;;;;;;1.65;1.40;;;;;;;21.13;35.99;103582.34;5030127;28;20134;-69
2022/01/23 07:43:41;;;;;;;1.27;1.13;;;;;;;21.09;36.10;103602.13;5030171;28;20207;-68
2022/01/23 07:46:16;;;;;;;1.60;1.50;;;;;;;21.02;36.32;103597.44;5036345;28;20049;-69
2022/01/23 07:48:54;;;;;;;1.60;1.48;;;;;;;20.97;36.39;103605.72;5040549;28;20032;-69
2022/01/23 07:51:39;;;;;;;2.78;1.45;;;;;;;20.89;36.42;103605.50;4999639;28;20045;-68
2022/01/23 07:54:38;;;;;;;2.80;1.55;;;;;;;20.84;36.54;103604.19;5018824;28;21034;-69
2022/01/23 07:57:42;;;;;;;2.15;1.73;;;;;;;20.78;36.78;103610.78;5013611;28;20142;-69
2022/01/23 08:00:22;;;;;;;2.08;1.52;;;;;;;20.77;36.70;103619.69;5023769;28;20048;-69
2022/01/23 08:02:47;;;;;;;1.60;1.45;;;;;;;20.74;36.87;103620.78;5033535;28;20531;-69
2022/01/23 08:05:45;;;;;;;2.60;1.60;;;;;;;20.74;36.86;103614.63;5028632;28;20411;-69
2022/01/23 08:08:36;;;;;;;2.30;1.65;;;;;;;20.65;36.89;103616.19;5028965;28;20061;-69
2022/01/23 08:11:05;;;;;;;2.58;1.45;;;;;;;20.63;36.99;103615.44;5029490;28;20195;-69
2022/01/23 08:13:31;;;;;;;2.10;1.50;;;;;;;20.62;37.11;103623.50;5023391;28;20565;-69
2022/01/23 08:15:56;;;;;;;1.60;1.40;;;;;;;20.65;36.83;103618.84;5022298;28;20447;-70
2022/01/23 08:18:22;;;;;;;2.92;1.63;;;;;;;20.72;36.91;103624.50;5030160;28;20046;-70
2022/01/23 08:20:48;;;;;;;3.67;2.10;;;;;;;20.73;36.79;103620.88;5026933;28;20041;-70
2022/01/23 08:23:14;;;;;;;2.72;1.85;;;;;;;20.74;36.63;103617.28;5028801;28;20037;-71
2022/01/23 08:25:40;;;;;;;1.40;1.30;;;;;;;20.72;36.67;103614.75;5023366;28;20044;-70
2022/01/23 08:28:07;;;;;;;1.70;1.52;;;;;;;20.67;36.66;103621.38;5025683;28;20509;-70
2022/01/23 08:30:33;;;;;;;2.05;1.45;;;;;;;20.64;36.91;103624.22;5030182;28;20440;-71
2022/01/23 08:32:59;;;;;;;1.77;1.50;;;;;;;20.58;37.11;103617.59;5028421;28;20045;-70
2022/01/23 08:35:26;;;;;;;2.78;1.35;;;;;;;20.66;36.91;103631.13;5027044;28;20056;-70
2022/01/23 08:37:52;;;;;;;2.88;1.52;;;;;;;20.76;36.74;103634.72;5028632;28;20124;-71
2022/01/23 08:40:23;;;;;;;1.58;1.35;;;;;;;21.00;36.37;103637.28;5033606;28;20081;-70
2022/01/23 08:42:51;;;;;;;1.85;1.45;;;;;;;20.95;36.26;103635.94;5033576;28;20083;-70
2022/01/23 08:45:17;;;;;;;2.97;1.48;;;;;;;20.91;36.46;103638.00;5029663;28;20028;-70
2022/01/23 08:47:43;;;;;;;1.38;1.23;;;;;;;20.92;36.39;103649.44;5030920;28;20048;-68
2022/01/23 08:50:09;;;;;;;2.38;1.48;;;;;;;20.92;36.46;103654.75;5032999;28;20040;-68
2022/01/23 08:52:36;;;;;;;1.75;1.13;;;;;;;20.88;36.47;103654.13;5032210;28;20055;-69
2022/01/23 08:55:01;;;;;;;2.40;1.45;;;;;;;20.85;36.45;103651.72;5033627;28;20061;-69
2022/01/23 08:57:27;;;;;;;2.70;1.40;;;;;;;20.77;36.69;103649.66;5032257;28;20477;-68
2022/01/23 08:59:52;;;;;;;1.83;1.67;;;;;;;20.75;36.78;103651.59;5038129;28;20481;-69
2022/01/23 09:02:18;;;;;;;2.83;1.67;;;;;;;20.73;36.86;103656.16;5034562;28;20698;-70
2022/01/23 09:04:45;;;;;;;1.92;1.23;;;;;;;20.73;36.88;103648.22;5038647;28;20106;-69
2022/01/23 09:07:12;;;;;;;2.28;1.70;;;;;;;20.68;36.78;103647.72;5032993;28;20053;-69
2022/01/23 09:09:39;;;;;;;1.50;1.27;;;;;;;20.67;37.08;103656.63;5046838;28;20053;-72
2022/01/23 09:14:54;;;;;;;2.15;1.27;;;;;;;20.84;36.62;103654.50;5023635;28;20075;-72
2022/01/23 09:17:19;;;;;;;1.48;1.33;;;;;;;21.00;36.34;103652.31;5029523;28;20042;-72
2022/01/23 09:19:47;;;;;;;1.73;1.40;;;;;;;20.99;36.27;103648.84;5032485;28;20380;-72
2022/01/23 09:22:12;;;;;;;2.22;1.30;;;;;;;20.95;36.47;103651.84;5043526;28;20038;-72
2022/01/23 09:24:38;;;;;;;3.58;1.00;;;;;;;20.90;36.48;103657.50;5033309;28;20045;-71
2022/01/23 09:27:06;;;;;;;1.65;1.40;;;;;;;20.88;36.57;103655.94;5028664;28;20108;-73
2022/01/23 09:29:39;;;;;;;1.30;1.05;;;;;;;20.81;36.76;103656.41;5032148;28;20393;-71
2022/01/23 09:32:14;;;;;;;2.15;1.35;;;;;;;20.78;36.91;103671.69;5030124;28;20037;-71
2022/01/23 09:34:41;;;;;;;2.53;1.25;;;;;;;20.77;36.73;103654.09;5035534;28;20037;-71
2022/01/23 09:37:09;;;;;;;1.75;1.60;;;;;;;20.79;36.77;103658.31;5030587;28;20056;-71
2022/01/23 09:39:37;;;;;;;1.52;1.23;;;;;;;20.80;36.78;103665.31;5035473;28;20036;-71
2022/01/23 09:42:07;;;;;;;1.35;1.08;;;;;;;20.77;36.71;103659.41;5036089;28;20040;-71
2022/01/23 09:44:53;;;;;;;1.25;1.15;;;;;;;20.76;36.89;103665.66;5032698;28;20041;-72
2022/01/23 09:47:20;;;;;;;1.10;1.00;;;;;;;20.74;36.97;103671.09;5034749;28;20112;-72
2022/01/23 09:49:47;;;;;;;1.85;1.10;;;;;;;20.64;37.00;103653.34;5035854;28;20041;-72
2022/01/23 09:52:14;;;;;;;1.55;1.30;;;;;;;20.80;37.02;103667.13;5033751;28;20025;-73
2022/01/23 09:54:41;;;;;;;1.92;1.40;;;;;;;20.87;36.76;103671.00;5035116;28;20119;-73
2022/01/23 09:57:09;;;;;;;1.50;1.17;;;;;;;21.01;36.55;103676.06;5027576;28;20467;-73
2022/01/23 09:59:35;;;;;;;2.05;1.30;;;;;;;21.18;36.35;103666.78;5029253;28;20068;-73
2022/01/23 10:02:03;;;;;;;1.70;1.13;;;;;;;21.25;36.23;103667.19;5032514;28;20439;-73
2022/01/23 10:04:30;;;;;;;2.75;1.45;;;;;;;21.16;36.20;103674.00;5029120;28;20438;-73
2022/01/23 10:06:57;;;;;;;1.63;1.30;;;;;;;21.07;36.63;103672.09;5033155;28;20647;-74
2022/01/23 10:09:27;;;;;;;1.08;1.00;;;;;;;20.99;36.75;103663.88;5033039;28;20043;-73
2022/01/23 10:11:53;;;;;;;3.72;1.60;;;;;;;20.99;36.79;103671.84;5032568;28;20040;-73
2022/01/23 10:14:20;;;;;;;1.20;1.10;;;;;;;20.99;37.05;103669.19;5028458;28;20040;-74
2022/01/23 10:16:47;;;;;;;1.23;1.02;;;;;;;20.95;36.81;103668.59;5034927;28;20525;-73
2022/01/23 10:19:15;;;;;;;1.95;1.13;;;;;;;20.94;36.99;103666.91;5027062;28;20053;-73
2022/01/23 10:21:43;;;;;;;1.90;1.20;;;;;;;20.90;36.99;103669.91;5033590;28;20438;-74
2022/01/23 10:24:10;;;;;;;2.35;1.10;;;;;;;20.85;37.11;103662.31;5032084;28;20117;-73
2022/01/23 10:26:48;;;;;;;1.60;0.90;;;;;;;20.84;37.00;103657.16;5035291;28;20044;-73
2022/01/23 10:29:29;;;;;;;1.05;0.95;;;;;;;20.80;37.17;103667.94;5033524;28;20116;-73
2022/01/23 10:32:20;;;;;;;1.40;1.17;;;;;;;20.88;37.03;103669.19;5030932;28;20056;-73
2022/01/23 10:34:57;;;;;;;2.42;1.15;;;;;;;21.08;36.93;103665.84;5028385;28;20108;-73
2022/01/23 10:37:37;;;;;;;1.58;1.25;;;;;;;21.37;36.47;103660.94;5035708;28;20721;-72
2022/01/23 10:40:22;;;;;;;1.98;1.33;;;;;;;21.42;36.26;103669.34;5042587;28;20111;-73
2022/01/23 10:48:36;;;;;;;1.90;1.40;;;;;;;21.16;36.72;103658.13;5030659;28;20060;-73
2022/01/23 10:51:28;;;;;;;1.70;1.50;;;;;;;21.10;36.89;103664.75;5032282;28;20261;-73
2022/01/23 10:54:00;;;;;;;1.67;1.25;;;;;;;21.09;36.92;103665.72;5042690;28;20085;-73
2022/01/23 10:56:27;;;;;;;1.33;1.10;;;;;;;21.06;36.75;103657.16;5030389;28;20064;-73
2022/01/23 10:58:57;;;;;;;1.30;1.00;;;;;;;21.03;37.03;103660.91;5027310;28;20053;-73
2022/01/23 11:01:23;;;;;;;2.17;1.13;;;;;;;21.01;37.06;103662.00;5030940;28;20079;-72
2022/01/23 11:04:12;;;;;;;1.25;0.90;;;;;;;20.97;37.20;103663.16;5033793;28;20044;-74
2022/01/23 11:06:54;;;;;;;1.15;1.05;;;;;;;20.95;37.06;103658.00;5029193;28;20483;-74
2022/01/23 11:09:23;;;;;;;0.93;0.90;;;;;;;20.95;37.22;103654.50;5033354;28;20264;-72
2022/01/23 11:11:51;;;;;;;0.95;0.93;;;;;;;20.89;37.30;103647.88;5033896;28;20406;-72
2022/01/23 11:17:23;;;;;;;1.58;1.00;;;;;;;21.35;36.78;103644.28;5017706;28;21152;-70
2022/01/23 11:20:07;;;;;;;3.35;1.27;;;;;;;21.48;36.86;103642.34;5038809;28;20118;-71
2022/01/23 11:22:35;;;;;;;1.30;1.00;;;;;;;21.55;36.68;103637.41;5037422;28;20896;-69
2022/01/23 11:25:07;;;;;;;1.50;0.82;;;;;;;21.59;37.02;103641.50;5036158;28;20063;-72
2022/01/23 11:27:37;;;;;;;3.63;1.05;;;;;;;21.62;36.96;103641.25;5034670;28;20471;-71
2022/01/23 11:30:08;;;;;;;1.30;1.20;;;;;;;21.65;36.74;103641.00;5034234;28;20052;-72
2022/01/23 11:32:37;;;;;;;1.67;0.80;;;;;;;21.66;36.85;103642.69;5009573;28;20064;-71
2022/01/23 11:35:11;;;;;;;2.10;1.58;;;;;;;21.66;36.82;103638.22;5038168;28;20041;-72
2022/01/23 11:37:50;;;;;;;1.33;1.10;;;;;;;21.68;36.94;103638.09;5010994;28;20201;-71
2022/01/23 11:50:41;;;;;;;0.90;0.90;;;;;;;21.70;37.16;103639.66;5033465;28;20039;-69
2022/01/23 11:54:44;;;;;;;1.00;0.73;;;;;;;21.88;37.07;103639.97;5017624;28;20037;-68
2022/01/23 11:57:40;;;;;;;0.73;0.73;;;;;;;21.91;37.09;103626.47;5038926;28;20218;-68
2022/01/23 12:00:25;;;;;;;2.60;1.02;;;;;;;21.91;37.31;103623.81;5023952;28;20028;-70
2022/01/23 12:03:13;;;;;;;2.03;0.55;;;;;;;21.78;37.20;103631.09;5035993;28;20704;-71
2022/01/23 12:05:43;;;;;;;1.58;1.00;;;;;;;21.62;37.83;103620.88;5000973;28;20045;-71
2022/01/23 12:08:36;;;;;;;1.30;1.20;;;;;;;21.62;37.51;103622.69;5032745;28;20048;-72
2022/01/23 12:18:48;;;;;;;1.95;0.70;;;;;;;21.41;37.68;103596.94;5032542;28;20041;-71
2022/01/23 12:21:30;;;;;;;1.02;0.60;;;;;;;21.46;37.92;103608.97;5013570;28;20751;-70
2022/01/23 12:24:02;;;;;;;2.03;0.80;;;;;;;21.43;37.86;103604.78;5027440;28;20558;-71
2022/01/23 12:26:27;;;;;;;5.35;1.17;;;;;;;21.38;37.62;103609.59;5041520;28;20111;-70
2022/01/23 12:28:53;;;;;;;1.92;0.98;;;;;;;21.33;37.73;103598.50;5009513;28;20059;-69
2022/01/23 12:31:23;;;;;;;1.25;0.80;;;;;;;21.45;37.47;103605.50;5036757;28;20045;-70
2022/01/23 12:33:57;;;;;;;0.95;0.80;;;;;;;21.41;37.51;103596.09;5008770;28;20124;-69
2022/01/23 12:36:31;;;;;;;1.13;0.80;;;;;;;21.50;37.48;103602.47;5039700;28;20044;-72
2022/01/23 12:39:15;;;;;;;0.60;0.60;;;;;;;21.47;37.60;103598.25;4998924;28;20160;-70
2022/01/23 12:41:53;;;;;;;0.77;0.77;;;;;;;21.40;37.77;103597.06;5036401;28;20025;-69
2022/01/23 12:44:26;;;;;;;1.48;0.95;;;;;;;21.33;37.67;103603.81;5010396;28;20083;-70
2022/01/23 12:46:56;;;;;;;1.55;1.00;;;;;;;21.41;37.46;103599.59;5030976;28;20068;-71
2022/01/23 12:49:29;;;;;;;0.88;0.75;;;;;;;21.42;37.34;103598.63;5008432;28;20517;-70
2022/01/23 12:52:16;;;;;;;0.50;0.50;;;;;;;21.45;37.53;103588.72;5035250;28;20384;-70
2022/01/23 12:54:48;;;;;;;2.00;1.15;;;;;;;21.42;37.37;103585.38;5011126;28;20029;-69
2022/01/23 12:57:33;;;;;;;0.70;0.57;;;;;;;21.31;37.56;103585.38;5026455;28;20544;-70
2022/01/23 13:00:04;;;;;;;0.80;0.80;;;;;;;21.30;37.63;103583.69;5032671;28;20033;-69
2022/01/23 13:02:38;;;;;;;1.17;0.80;;;;;;;21.36;37.66;103585.00;5009979;28;20043;-69
2022/01/23 13:05:04;;;;;;;1.00;0.70;;;;;;;21.42;37.47;103584.53;5032202;28;20221;-70
2022/01/23 13:10:21;;;;;;;1.52;0.77;;;;;;;21.50;37.37;103583.91;5036501;28;20057;-70
2022/01/23 13:32:14;;;;;;;1.77;0.98;;;;;;;21.90;36.33;103577.03;5033402;28;20050;-70
2022/01/23 13:34:51;;;;;;;1.45;0.73;;;;;;;21.86;36.74;103572.94;5008868;28;20112;-71
2022/01/23 13:37:23;;;;;;;0.88;0.80;;;;;;;21.85;36.67;103571.25;5031396;28;20041;-71
2022/01/23 13:40:03;;;;;;;1.60;1.00;;;;;;;21.84;36.61;103574.03;5010178;28;20538;-71
2022/01/23 13:53:50;;;;;;;0.73;0.70;;;;;;;21.67;36.74;103557.69;5032972;28;20074;-71
2022/01/23 13:58:53;;;;;;;1.27;0.95;;;;;;;21.65;36.98;103569.41;5033982;28;20033;-68
2022/01/23 14:03:45;;;;;;;0.90;0.80;;;;;;;21.87;36.85;103569.31;5037103;28;20167;-71
2022/01/23 14:06:11;;;;;;;3.15;0.82;;;;;;;21.94;36.71;103569.66;5008266;28;20049;-69
2022/01/23 14:08:37;;;;;;;1.38;1.17;;;;;;;21.97;36.77;103569.38;5038448;28;20086;-68
2022/01/23 14:11:02;;;;;;;1.40;0.90;;;;;;;21.90;36.99;103563.75;5012809;28;20053;-69
2022/01/23 14:13:28;;;;;;;1.75;1.00;;;;;;;21.87;37.17;103571.94;5035743;28;20124;-68
2022/01/23 14:15:55;;;;;;;3.20;1.20;;;;;;;21.86;37.27;103561.47;5010694;28;20033;-72
2022/01/23 14:18:24;;;;;;;2.67;0.77;;;;;;;21.90;37.40;103570.84;5025327;28;20494;-68
2022/01/23 14:21:09;;;;;;;1.45;0.98;;;;;;;21.95;37.41;103572.19;5034309;28;20140;-68
2022/01/23 14:23:36;;;;;;;1.25;0.95;;;;;;;21.99;37.34;103573.59;5012507;28;20029;-69
2022/01/23 14:26:08;;;;;;;1.45;0.90;;;;;;;21.98;37.61;103568.41;5032006;28;20130;-71
2022/01/23 14:28:47;;;;;;;2.88;0.93;;;;;;;21.92;37.50;103575.09;5007332;28;20034;-68
2022/01/23 14:31:19;;;;;;;3.30;1.17;;;;;;;21.91;37.57;103578.72;5030435;28;20047;-70
2022/01/23 14:33:49;;;;;;;2.70;0.90;;;;;;;21.99;37.52;103568.28;5009846;28;20522;-68
2022/01/23 14:36:15;;;;;;;;;;;;;;;22.01;37.42;103579.63;5031452;28;20112;-68
2022/01/23 14:38:59;;;;;;;3.78;1.23;;;;;;;21.98;37.77;103589.66;5008065;28;19917;-70
2022/01/23 14:41:29;;;;;;;2.30;1.20;;;;;;;22.08;37.79;103584.44;4973696;28;20150;-69
2022/01/23 14:43:55;;;;;;;2.00;0.98;;;;;;;22.23;37.26;103585.81;4990463;28;20471;-69
2022/01/23 14:46:21;;;;;;;3.83;1.25;;;;;;;22.38;37.40;103584.50;5036668;28;20052;-70
2022/01/23 14:48:49;;;;;;;1.13;1.00;;;;;;;22.45;37.05;103592.81;5000555;28;20044;-69
2022/01/23 14:51:24;;;;;;;1.55;0.93;;;;;;;22.60;37.07;103592.31;5036586;28;20475;-67
2022/01/23 14:53:51;;;;;;;2.75;1.20;;;;;;;22.72;36.51;103590.44;5008495;28;20044;-72
2022/01/23 14:56:18;;;;;;;1.67;0.95;;;;;;;22.72;36.52;103586.94;5033624;28;20041;-70
2022/01/23 14:58:44;;;;;;;1.73;0.93;;;;;;;22.69;36.83;103579.22;5004032;28;21190;-69
2022/01/23 15:01:15;;;;;;;1.17;1.00;;;;;;;22.73;36.55;103593.94;5027766;28;20227;-67
2022/01/23 15:03:43;;;;;;;0.90;0.85;;;;;;;22.69;36.74;103596.00;5005184;28;22199;-72
2022/01/23 15:06:09;;;;;;;1.25;0.77;;;;;;;22.69;36.99;103593.34;5025592;28;20056;-70
2022/01/23 15:08:37;;;;;;;1.65;1.05;;;;;;;22.64;36.82;103602.72;5007651;28;20170;-70
2022/01/23 15:11:03;;;;;;;1.80;1.10;;;;;;;22.23;37.45;103599.91;5027679;28;20045;-70
2022/01/23 15:13:30;;;;;;;2.15;1.10;;;;;;;22.32;37.08;103598.31;5018952;28;20049;-71
2022/01/23 15:15:58;;;;;;;4.32;1.67;;;;;;;22.26;37.49;103597.03;5025871;28;20034;-73
2022/01/23 15:18:25;;;;;;;2.63;1.30;;;;;;;22.19;37.33;103593.19;5012084;28;20037;-72
2022/01/23 15:20:51;;;;;;;1.60;1.25;;;;;;;22.23;37.21;103597.25;5024639;28;20154;-72
2022/01/23 15:23:17;;;;;;;4.07;1.38;;;;;;;22.10;37.39;103585.16;5025610;28;20029;-72